Time;durP1;ratioP1;P1;durP2;ratioP2;P2;SDS_P1;SDS_P2;PMS_P1;PMS_P2;Temp;Humidity;BMP_temperature;BMP_pressure;BME280_temperature;BME280_humidity;BME280_pressure;Samples;Min_cycle;Max_cycle;Signal;HPM_P1;HPM_P2
2022/07/03 00:02:18;;;;;;;1.95;0.95;;;;;;;19.59;49.21;100806.12;1688567;84;21059;-70
2022/07/03 00:04:44;;;;;;;1.37;0.68;;;;;;;19.59;49.68;100800.71;1676266;84;21124;-70
2022/07/03 00:07:10;;;;;;;2.50;1.22;;;;;;;19.59;49.94;100804.26;1685872;84;21027;-70
2022/07/03 00:09:37;;;;;;;0.70;0.60;;;;;;;19.59;50.48;100794.80;1677124;84;21084;-70
2022/07/03 00:12:05;;;;;;;0.78;0.78;;;;;;;19.59;50.76;100790.74;1681928;84;21546;-70
2022/07/03 00:14:32;;;;;;;2.87;1.45;;;;;;;19.60;51.25;100785.61;1682330;84;21053;-70
2022/07/03 00:16:59;;;;;;;3.08;1.20;;;;;;;19.60;51.83;100782.91;1672466;84;21034;-70
2022/07/03 00:19:25;;;;;;;3.58;1.15;;;;;;;19.62;52.03;100779.97;1660050;85;21082;-69
2022/07/03 00:21:56;;;;;;;2.35;1.62;;;;;;;19.62;52.36;100779.43;1684686;83;21058;-71
2022/07/03 00:24:37;;;;;;;2.52;1.17;;;;;;;19.63;52.43;100771.63;1683350;83;21095;-70
2022/07/03 00:27:07;;;;;;;2.25;1.62;;;;;;;19.63;52.71;100775.68;1684047;84;21106;-71
2022/07/03 00:29:38;;;;;;;9.23;2.00;;;;;;;19.62;52.90;100776.73;1681826;84;21066;-70
2022/07/03 00:32:09;;;;;;;3.40;1.22;;;;;;;19.61;53.06;100768.34;1685716;84;21640;-70
2022/07/03 00:34:36;;;;;;;1.87;1.35;;;;;;;19.61;53.36;100769.69;1672417;84;21542;-70
2022/07/03 00:37:06;;;;;;;6.30;1.92;;;;;;;19.63;52.92;100766.75;1673787;84;21084;-69
2022/07/03 00:39:40;;;;;;;4.12;1.50;;;;;;;19.63;52.54;100769.45;1672067;84;21045;-71
2022/07/03 00:42:07;;;;;;;1.87;1.15;;;;;;;19.63;52.19;100764.05;1681665;84;21632;-69
2022/07/03 00:46:47;;;;;;;6.45;1.35;;;;;;;19.64;51.50;100757.56;1819356;77;22169;-70
2022/07/03 00:49:17;;;;;;;1.32;1.22;;;;;;;19.61;50.96;100756.70;1778795;79;20979;-70
2022/07/03 00:51:45;;;;;;;3.40;1.45;;;;;;;19.62;50.96;100759.15;1767509;79;20979;-70
2022/07/03 00:54:15;;;;;;;3.10;1.25;;;;;;;19.62;51.00;100757.80;1774866;79;21040;-71
2022/07/03 00:56:46;;;;;;;2.27;0.88;;;;;;;19.63;50.69;100758.10;1789792;79;21563;-70
2022/07/03 00:59:13;;;;;;;5.37;1.45;;;;;;;19.63;50.76;100761.34;1776871;79;21545;-69
2022/07/03 01:01:39;;;;;;;;;;;;;;;19.63;50.84;100760.81;1785899;79;20999;-71
2022/07/03 01:04:25;;;;;;;1.57;1.40;;;;;;;19.63;50.80;100758.10;1774904;79;20418;-69
2022/07/03 01:07:00;;;;;;;3.12;1.02;;;;;;;19.59;50.96;100761.00;1769442;78;21044;-71
2022/07/03 01:09:48;;;;;;;2.47;1.20;;;;;;;19.57;50.91;100760.42;1775052;79;21002;-71
2022/07/03 01:12:31;;;;;;;5.28;1.80;;;;;;;19.57;51.17;100767.17;1745799;79;21519;-71
2022/07/03 01:15:11;;;;;;;4.00;1.60;;;;;;;19.55;51.17;100758.98;1709118;82;21048;-70
2022/07/03 01:17:40;;;;;;;2.58;1.80;;;;;;;19.52;51.31;100758.95;1710524;82;21101;-69
2022/07/03 01:20:07;;;;;;;1.37;1.27;;;;;;;19.49;51.60;100760.76;1722078;82;20973;-70
2022/07/03 01:22:44;;;;;;;1.05;0.93;;;;;;;19.48;51.46;100764.54;1708960;81;21605;-70
2022/07/03 01:25:38;;;;;;;;;;;;;;;19.43;50.93;100761.72;1722609;81;21171;-70
2022/07/03 01:28:12;;;;;;;2.98;1.30;;;;;;;19.41;51.05;100753.02;1731064;83;20104;-70
2022/07/03 01:30:45;;;;;;;;;;;;;;;19.37;51.20;100755.37;1731794;82;21071;-70
2022/07/03 01:33:18;;;;;;;2.58;1.02;;;;;;;19.37;51.37;100756.73;1718314;81;20184;-70
2022/07/03 01:36:08;;;;;;;1.65;1.55;;;;;;;19.35;51.77;100756.69;1735676;81;21043;-69
2022/07/03 01:38:37;;;;;;;2.98;1.47;;;;;;;19.40;51.61;100755.42;1737589;81;21057;-69
2022/07/03 01:41:08;;;;;;;2.10;2.00;;;;;;;19.44;51.69;100752.56;1737468;80;21103;-69
2022/07/03 01:43:43;;;;;;;4.85;3.90;;;;;;;19.50;51.56;100755.66;1742673;80;21001;-68
2022/07/03 01:46:12;;;;;;;5.35;4.58;;;;;;;19.58;51.19;100753.12;1726062;82;21034;-69
2022/07/03 01:48:42;;;;;;;2.27;2.17;;;;;;;19.64;50.89;100747.56;1716445;82;20982;-69
2022/07/03 01:51:13;;;;;;;5.33;4.83;;;;;;;19.68;50.90;100747.91;1703389;82;21064;-69
2022/07/03 01:53:47;;;;;;;3.92;2.20;;;;;;;19.68;50.66;100748.45;1723167;82;21038;-70
2022/07/03 01:56:18;;;;;;;3.52;3.10;;;;;;;19.70;50.83;100747.14;1716510;82;20986;-69
2022/07/03 01:58:46;;;;;;;5.12;4.72;;;;;;;19.71;51.11;100746.09;1707736;83;21085;-68
2022/07/03 02:01:43;;;;;;;2.50;2.33;;;;;;;19.71;51.06;100746.09;1705622;83;21064;-69
2022/07/03 02:04:37;;;;;;;1.32;1.22;;;;;;;19.73;50.82;100741.83;1702673;83;20998;-69
2022/07/03 02:07:21;;;;;;;4.30;1.60;;;;;;;19.74;50.27;100740.75;1684235;83;21117;-70
2022/07/03 02:10:08;;;;;;;1.85;1.17;;;;;;;19.72;51.09;100739.66;1703257;83;21571;-70
2022/07/03 02:12:52;;;;;;;3.37;3.02;;;;;;;19.75;50.68;100743.77;1701412;83;21631;-71
2022/07/03 02:15:31;;;;;;;1.92;1.32;;;;;;;19.82;50.87;100747.16;1698514;83;21109;-70
2022/07/03 02:18:01;;;;;;;8.45;1.87;;;;;;;19.92;50.39;100750.05;1704998;83;21188;-70
2022/07/03 02:20:33;;;;;;;1.87;1.77;;;;;;;19.89;50.34;100748.36;1699948;83;21122;-70
2022/07/03 02:23:02;;;;;;;1.30;1.17;;;;;;;19.97;50.03;100744.75;1700112;82;21487;-70
2022/07/03 02:25:36;;;;;;;3.80;0.80;;;;;;;20.21;49.92;100751.41;1705771;83;21105;-70
2022/07/03 02:28:40;;;;;;;3.17;0.90;;;;;;;20.47;49.39;100740.51;1706151;83;21069;-69
2022/07/03 02:31:10;;;;;;;1.72;1.55;;;;;;;20.70;48.71;100749.08;1706617;83;21556;-71
2022/07/03 02:33:40;;;;;;;1.62;0.78;;;;;;;20.99;48.42;100746.27;1697215;82;21037;-70
2022/07/03 02:36:10;;;;;;;2.87;0.90;;;;;;;21.31;47.85;100738.87;1721173;82;21498;-70
2022/07/03 02:38:37;;;;;;;2.75;0.62;;;;;;;21.68;47.50;100746.42;1698743;83;21047;-68
2022/07/03 02:41:15;;;;;;;2.15;0.60;;;;;;;22.01;45.90;100741.94;1721724;82;21025;-67
2022/07/03 02:44:02;;;;;;;1.85;0.90;;;;;;;22.24;45.22;100744.34;1721129;82;21513;-69
2022/07/03 02:47:09;;;;;;;3.45;0.88;;;;;;;22.45;44.69;100740.50;1706522;82;21125;-69
2022/07/03 02:49:49;;;;;;;1.92;1.12;;;;;;;22.69;43.88;100737.72;1684276;83;21147;-68
2022/07/03 02:52:41;;;;;;;3.72;0.82;;;;;;;22.93;43.62;100736.01;1711115;82;21019;-69
2022/07/03 02:55:33;;;;;;;2.00;0.80;;;;;;;23.21;43.60;100735.41;1724939;82;21102;-69
2022/07/03 02:58:33;;;;;;;1.85;1.35;;;;;;;23.63;42.32;100731.80;1696468;83;21040;-70
2022/07/03 03:01:09;;;;;;;3.47;0.95;;;;;;;24.08;41.39;100735.78;1710351;83;21489;-70
2022/07/03 03:03:39;;;;;;;1.02;0.82;;;;;;;24.54;40.24;100733.69;1710820;83;21585;-70
2022/07/03 03:06:15;;;;;;;3.87;0.50;;;;;;;24.81;39.27;100736.16;1697101;83;21054;-70
2022/07/03 03:08:51;;;;;;;5.83;0.85;;;;;;;24.96;39.23;100732.04;1711066;83;21640;-69
2022/07/03 03:11:31;;;;;;;4.15;0.45;;;;;;;25.30;37.67;100728.72;1720160;80;21143;-69
2022/07/03 03:14:01;;;;;;;0.72;0.45;;;;;;;25.50;37.60;100729.19;1693430;83;21093;-69
2022/07/03 03:16:28;;;;;;;1.32;0.60;;;;;;;25.74;36.56;100731.28;1729185;82;21093;-70
2022/07/03 03:18:55;;;;;;;1.80;0.33;;;;;;;25.89;36.27;100733.92;1723203;82;21520;-70
2022/07/03 03:21:26;;;;;;;0.47;0.30;;;;;;;26.01;36.03;100736.34;1721978;82;21128;-69
2022/07/03 03:23:52;;;;;;;1.70;0.50;;;;;;;26.22;35.69;100736.50;1710511;83;21014;-68
2022/07/03 03:26:22;;;;;;;2.30;0.53;;;;;;;26.42;34.67;100737.44;1714750;82;21550;-69
2022/07/03 03:28:51;;;;;;;0.95;0.42;;;;;;;26.60;34.87;100731.87;1711427;82;20982;-69
2022/07/03 03:31:19;;;;;;;1.05;0.42;;;;;;;26.89;33.46;100725.03;1728226;82;21598;-70
2022/07/03 03:33:49;;;;;;;1.17;0.37;;;;;;;27.13;33.42;100728.37;1729656;82;21446;-69
2022/07/03 03:36:19;;;;;;;2.33;0.53;;;;;;;27.23;32.96;100724.14;1723184;82;21111;-69
2022/07/03 03:38:49;;;;;;;1.70;0.82;;;;;;;27.35;32.90;100731.96;1730653;82;21017;-69
2022/07/03 03:41:16;;;;;;;1.47;0.60;;;;;;;27.66;32.13;100728.31;1716022;82;21020;-65
2022/07/03 03:43:43;;;;;;;3.92;3.65;;;;;;;27.91;31.68;100731.28;1727675;82;20989;-65
2022/07/03 03:46:10;;;;;;;4.03;2.95;;;;;;;28.18;31.49;100730.36;1725388;82;21014;-65
2022/07/03 03:48:36;;;;;;;2.22;2.05;;;;;;;28.39;31.08;100728.11;1719553;82;21480;-65
2022/07/03 03:51:05;;;;;;;3.80;3.22;;;;;;;28.59;31.00;100728.37;1722815;82;21058;-66
2022/07/03 03:53:33;;;;;;;6.85;5.62;;;;;;;28.93;30.10;100727.50;1731976;82;21097;-68
2022/07/03 03:56:07;;;;;;;4.10;3.70;;;;;;;29.27;29.85;100730.46;1730924;82;20988;-75
2022/07/03 03:58:38;;;;;;;6.78;3.70;;;;;;;29.33;29.48;100730.34;1723005;82;21121;-73
2022/07/03 04:01:07;;;;;;;6.12;4.53;;;;;;;29.32;29.36;100729.53;1726182;82;21077;-76
2022/07/03 04:03:35;;;;;;;2.33;2.12;;;;;;;29.28;29.93;100732.07;1710600;82;21037;-73
2022/07/03 04:06:02;;;;;;;1.72;1.50;;;;;;;29.38;28.85;100739.28;1703836;83;21020;-71
2022/07/03 04:08:30;;;;;;;2.70;1.77;;;;;;;29.19;29.23;100716.05;1698699;83;21026;-76
2022/07/03 04:10:57;;;;;;;2.02;0.53;;;;;;;29.35;29.27;100734.96;1719974;82;21075;-72
2022/07/03 04:13:24;;;;;;;2.77;0.95;;;;;;;29.58;29.15;100728.45;1739554;81;21149;-71
2022/07/03 04:15:52;;;;;;;4.22;1.82;;;;;;;29.92;28.68;100731.32;1744831;81;21481;-74
2022/07/03 04:18:20;;;;;;;4.62;0.60;;;;;;;30.27;27.93;100728.84;1746779;81;21063;-73
2022/07/03 04:20:46;;;;;;;0.80;0.40;;;;;;;30.55;27.92;100727.39;1746022;81;21124;-74
2022/07/03 04:23:13;;;;;;;3.55;2.22;;;;;;;30.75;27.40;100722.73;1747665;81;21013;-75
2022/07/03 04:25:40;;;;;;;2.83;2.05;;;;;;;30.94;27.55;100721.16;1742924;81;21061;-73
2022/07/03 04:28:06;;;;;;;0.50;0.30;;;;;;;31.10;27.00;100713.86;1745897;81;21502;-74
2022/07/03 04:30:33;;;;;;;1.47;1.02;;;;;;;31.06;26.60;100709.55;1746282;81;21005;-72
2022/07/03 04:32:59;;;;;;;3.83;3.50;;;;;;;30.93;26.85;100705.80;1747526;81;21038;-71
2022/07/03 04:35:25;;;;;;;1.80;1.10;;;;;;;30.95;27.20;100704.91;1730575;82;20951;-65
2022/07/03 04:37:51;;;;;;;4.00;2.60;;;;;;;31.08;27.51;100703.19;1728573;82;20996;-70
2022/07/03 04:40:18;;;;;;;2.98;0.60;;;;;;;31.08;26.84;100703.73;1728661;82;21090;-73
2022/07/03 04:42:45;;;;;;;4.20;0.53;;;;;;;31.06;26.64;100705.42;1707092;82;21051;-61
2022/07/03 04:45:12;;;;;;;3.42;1.52;;;;;;;31.20;26.63;100697.87;1729647;81;21003;-62
2022/07/03 04:47:38;;;;;;;4.72;4.33;;;;;;;31.43;26.19;100697.77;1730067;82;21012;-60
2022/07/03 04:50:06;;;;;;;3.62;1.50;;;;;;;31.47;26.26;100702.91;1729084;82;21011;-62
2022/07/03 04:52:34;;;;;;;10.38;9.58;;;;;;;31.44;25.84;100696.08;1728488;82;21035;-63
2022/07/03 04:55:01;;;;;;;14.90;11.78;;;;;;;31.46;26.38;100699.90;1712740;83;21022;-67
2022/07/03 04:57:28;;;;;;;10.32;8.80;;;;;;;31.59;26.05;100700.91;1728057;82;21039;-62
2022/07/03 04:59:54;;;;;;;5.53;5.12;;;;;;;31.55;26.21;100703.52;1729121;82;21059;-62
2022/07/03 05:02:21;;;;;;;0.80;0.72;;;;;;;31.53;25.88;100701.66;1698875;81;21058;-65
2022/07/03 05:04:47;;;;;;;1.65;0.93;;;;;;;31.32;26.09;100695.08;1698310;83;21134;-62
2022/07/03 05:07:15;;;;;;;1.70;0.68;;;;;;;31.00;27.35;100699.81;1697360;83;21067;-61
2022/07/03 05:09:41;;;;;;;0.95;0.35;;;;;;;30.84;27.73;100694.70;1698615;83;21055;-60
2022/07/03 05:12:08;;;;;;;2.67;0.40;;;;;;;30.94;26.93;100690.89;1696412;83;21195;-60
2022/07/03 05:14:34;;;;;;;2.30;0.75;;;;;;;30.85;27.20;100698.27;1696658;83;21039;-60
2022/07/03 05:17:00;;;;;;;1.17;0.40;;;;;;;30.84;26.84;100693.33;1697324;83;21542;-60
2022/07/03 05:19:27;;;;;;;0.72;0.37;;;;;;;30.88;27.13;100698.21;1695755;83;21083;-64
2022/07/03 05:21:53;;;;;;;0.53;0.50;;;;;;;30.94;26.64;100695.59;1694449;83;21689;-63
2022/07/03 05:24:21;;;;;;;3.05;0.50;;;;;;;30.89;26.89;100691.56;1696282;83;21167;-61
2022/07/03 05:26:48;;;;;;;2.05;0.70;;;;;;;30.91;26.62;100685.20;1695478;83;21473;-64
2022/07/03 05:29:14;;;;;;;5.58;0.53;;;;;;;31.01;26.76;100687.69;1690868;83;21084;-61
2022/07/03 05:31:40;;;;;;;3.50;0.60;;;;;;;31.08;26.51;100685.84;1696486;83;21109;-60
2022/07/03 05:34:08;;;;;;;3.80;0.30;;;;;;;31.04;26.30;100676.03;1714472;82;21595;-61
2022/07/03 05:36:34;;;;;;;2.37;0.35;;;;;;;30.96;26.02;100674.06;1734381;82;21053;-61
2022/07/03 05:41:48;;;;;;;2.70;0.50;;;;;;;31.03;26.60;100680.73;1725362;81;21441;-61
2022/07/03 05:44:14;;;;;;;4.05;0.20;;;;;;;31.12;26.30;100679.39;1728029;81;21199;-64
2022/07/03 05:46:41;;;;;;;3.35;0.20;;;;;;;30.93;25.34;100682.95;1729227;82;21370;-62
2022/07/03 05:49:08;;;;;;;1.05;0.60;;;;;;;30.70;25.95;100684.92;1725922;82;21011;-61
2022/07/03 05:51:34;;;;;;;1.52;0.40;;;;;;;30.63;25.84;100682.06;1728568;82;21037;-63
2022/07/03 05:54:00;;;;;;;0.20;0.20;;;;;;;30.56;25.08;100676.19;1728582;82;21072;-63
2022/07/03 05:56:28;;;;;;;2.90;0.40;;;;;;;30.17;25.00;100671.37;1728086;82;22575;-63
2022/07/03 05:58:54;;;;;;;10.88;6.22;;;;;;;29.67;25.91;100671.67;1722080;82;21045;-61
2022/07/03 06:01:23;;;;;;;4.25;0.40;;;;;;;29.16;26.14;100678.25;1728262;82;21030;-64
2022/07/03 06:03:49;;;;;;;1.55;0.30;;;;;;;28.90;26.87;100677.34;1726559;82;21034;-61
2022/07/03 06:06:15;;;;;;;4.47;0.53;;;;;;;28.72;26.86;100676.28;1726375;82;21493;-62
2022/07/03 06:08:42;;;;;;;1.77;0.35;;;;;;;28.67;26.88;100675.56;1723782;82;21213;-62
2022/07/03 06:11:08;;;;;;;1.95;0.33;;;;;;;28.80;26.49;100673.97;1727728;80;21138;-63
2022/07/03 06:13:34;;;;;;;1.02;0.50;;;;;;;28.94;26.49;100681.66;1726690;82;21083;-61
2022/07/03 06:16:00;;;;;;;0.53;0.33;;;;;;;29.08;26.86;100679.75;1726697;82;21102;-62
2022/07/03 06:18:27;;;;;;;1.27;0.50;;;;;;;29.45;26.77;100678.48;1724048;82;21137;-62
2022/07/03 06:20:53;;;;;;;1.95;0.68;;;;;;;29.90;25.73;100674.48;1728324;82;21012;-61
2022/07/03 06:23:19;;;;;;;0.47;0.28;;;;;;;30.01;25.21;100684.69;1727514;81;21018;-62
2022/07/03 06:25:46;;;;;;;4.97;0.85;;;;;;;30.04;25.93;100677.98;1745242;81;21074;-61
2022/07/03 06:28:12;;;;;;;0.95;0.60;;;;;;;30.18;25.86;100671.64;1741276;81;21094;-64
2022/07/03 06:30:38;;;;;;;0.88;0.53;;;;;;;30.27;25.27;100678.82;1727572;81;21480;-63
2022/07/03 06:33:04;;;;;;;3.27;0.80;;;;;;;30.04;25.31;100679.92;1724032;81;21061;-62
2022/07/03 06:35:31;;;;;;;3.30;0.50;;;;;;;29.78;26.01;100672.84;1728522;81;21053;-62
2022/07/03 06:38:03;;;;;;;0.72;0.72;;;;;;;29.47;26.53;100667.43;1729158;82;21559;-61
2022/07/03 06:40:30;;;;;;;1.27;0.78;;;;;;;29.23;26.84;100674.52;1727455;82;21049;-63
2022/07/03 06:42:57;;;;;;;3.05;0.40;;;;;;;29.01;27.18;100678.50;1720655;81;21104;-61
2022/07/03 06:45:26;;;;;;;2.80;0.42;;;;;;;28.89;27.48;100671.58;1736291;81;21095;-61
2022/07/03 06:47:52;;;;;;;1.55;1.00;;;;;;;28.88;27.42;100663.12;1728081;82;21851;-60
2022/07/03 06:50:18;;;;;;;1.07;0.35;;;;;;;28.95;27.99;100667.37;1726801;81;21861;-62
2022/07/03 06:52:45;;;;;;;3.45;0.95;;;;;;;28.82;28.03;100665.70;1727934;82;21060;-62
2022/07/03 06:55:11;;;;;;;1.17;0.72;;;;;;;28.65;27.70;100666.83;1728411;81;21579;-60
2022/07/03 06:57:37;;;;;;;1.57;0.60;;;;;;;28.53;28.38;100670.87;1727425;82;20986;-62
2022/07/03 07:00:07;;;;;;;1.47;0.60;;;;;;;28.66;28.60;100665.16;1716448;82;21048;-62
2022/07/03 07:02:33;;;;;;;0.98;0.40;;;;;;;28.87;28.69;100664.22;1729937;82;21077;-61
2022/07/03 07:04:59;;;;;;;2.85;0.47;;;;;;;29.04;28.02;100669.11;1718338;82;21544;-61
2022/07/03 07:07:25;;;;;;;6.70;0.60;;;;;;;29.01;27.85;100666.16;1728219;82;20982;-62
2022/07/03 07:09:52;;;;;;;0.75;0.37;;;;;;;28.87;27.88;100666.96;1727519;82;21491;-61
2022/07/03 07:12:18;;;;;;;1.65;0.70;;;;;;;28.69;28.18;100667.87;1717992;82;21548;-62
2022/07/03 07:14:44;;;;;;;2.72;0.60;;;;;;;28.59;29.81;100661.19;1724198;82;21532;-63
2022/07/03 07:17:11;;;;;;;0.75;0.40;;;;;;;28.59;28.57;100663.36;1728731;82;21117;-61
2022/07/03 07:19:37;;;;;;;1.75;0.95;;;;;;;28.69;28.81;100659.08;1727166;82;21065;-61
2022/07/03 07:22:06;;;;;;;1.12;0.60;;;;;;;28.81;28.57;100660.52;1711641;82;21016;-62
2022/07/03 07:24:34;;;;;;;1.00;0.82;;;;;;;28.84;27.98;100659.89;1726757;82;21041;-62
2022/07/03 07:27:00;;;;;;;1.22;0.62;;;;;;;28.72;28.87;100661.77;1739144;82;21105;-61
2022/07/03 07:29:26;;;;;;;3.30;0.42;;;;;;;28.71;29.09;100658.22;1727313;82;21038;-62
2022/07/03 07:31:52;;;;;;;5.37;0.80;;;;;;;28.79;28.53;100655.33;1728612;82;21013;-62
2022/07/03 07:34:19;;;;;;;1.32;0.65;;;;;;;28.76;28.79;100666.09;1728945;82;21067;-61
2022/07/03 07:36:45;;;;;;;3.30;0.72;;;;;;;28.85;28.69;100661.53;1727676;82;21505;-61
2022/07/03 07:39:11;;;;;;;11.03;1.75;;;;;;;28.91;29.37;100654.83;1725970;82;21157;-63
2022/07/03 07:41:38;;;;;;;2.77;0.98;;;;;;;29.10;29.06;100657.47;1727967;82;21561;-62
2022/07/03 07:44:04;;;;;;;2.80;0.72;;;;;;;29.37;29.01;100657.25;1727558;81;22479;-62
2022/07/03 07:46:31;;;;;;;2.37;0.57;;;;;;;29.43;28.61;100647.77;1728209;82;21178;-61
2022/07/03 07:48:57;;;;;;;3.05;0.70;;;;;;;29.29;28.83;100648.61;1726722;82;21075;-61
2022/07/03 07:51:23;;;;;;;2.47;0.90;;;;;;;29.00;29.17;100654.94;1728485;82;21037;-61
2022/07/03 07:53:52;;;;;;;1.42;0.50;;;;;;;28.84;30.20;100655.24;1727094;82;21445;-64
2022/07/03 07:56:18;;;;;;;1.92;0.62;;;;;;;28.66;29.39;100652.02;1726813;82;21080;-62
2022/07/03 07:58:44;;;;;;;2.20;0.60;;;;;;;28.51;29.83;100647.59;1726430;82;21119;-62
2022/07/03 08:06:39;;;;;;;5.00;0.68;;;;;;;28.35;30.60;100649.80;1722524;82;21044;-64
2022/07/03 08:09:05;;;;;;;4.42;0.90;;;;;;;28.29;30.25;100649.60;1728016;82;21520;-63
2022/07/03 08:11:33;;;;;;;1.42;0.85;;;;;;;28.23;30.22;100648.88;1721281;81;21059;-63
2022/07/03 08:14:00;;;;;;;0.82;0.70;;;;;;;28.19;30.78;100649.22;1727813;82;21032;-65
2022/07/03 08:16:26;;;;;;;0.68;0.57;;;;;;;28.20;30.71;100647.28;1728308;82;21068;-62
2022/07/03 08:18:53;;;;;;;2.65;0.85;;;;;;;28.21;30.82;100653.84;1739612;82;21002;-62
2022/07/03 08:21:20;;;;;;;2.77;1.25;;;;;;;28.24;30.81;100651.08;1726870;82;21072;-62
2022/07/03 08:23:46;;;;;;;1.22;0.80;;;;;;;28.27;30.85;100645.78;1726727;82;21032;-61
2022/07/03 08:26:12;;;;;;;1.20;0.80;;;;;;;28.33;30.81;100647.88;1726555;82;21050;-62
2022/07/03 08:28:38;;;;;;;0.75;0.72;;;;;;;28.42;30.84;100643.91;1730199;82;21077;-61
2022/07/03 08:31:04;;;;;;;4.92;0.78;;;;;;;28.55;30.86;100648.63;1730710;82;21091;-62
2022/07/03 08:33:31;;;;;;;1.75;0.53;;;;;;;28.68;30.38;100655.27;1728424;81;21636;-64
2022/07/03 08:35:58;;;;;;;2.58;0.80;;;;;;;28.61;30.51;100657.59;1730465;82;21077;-62
2022/07/03 08:38:29;;;;;;;5.05;1.00;;;;;;;28.43;30.28;100663.38;1735225;81;21554;-63
2022/07/03 08:40:59;;;;;;;2.45;1.12;;;;;;;28.22;30.64;100664.23;1728472;82;20990;-61
2022/07/03 08:43:27;;;;;;;1.82;0.65;;;;;;;28.04;30.82;100663.98;1732103;82;21439;-61
2022/07/03 08:45:56;;;;;;;4.62;0.60;;;;;;;28.02;31.12;100655.25;1738068;82;21070;-63
2022/07/03 08:48:22;;;;;;;2.12;0.80;;;;;;;28.01;31.03;100656.91;1730013;82;21020;-62
2022/07/03 08:50:52;;;;;;;1.25;0.82;;;;;;;27.94;30.86;100644.41;1728339;82;21058;-61
2022/07/03 08:53:18;;;;;;;7.97;1.20;;;;;;;27.95;30.98;100647.42;1727451;82;21565;-61
2022/07/03 08:55:48;;;;;;;2.05;0.65;;;;;;;28.02;30.82;100644.84;1728694;82;20986;-61
2022/07/03 08:58:15;;;;;;;7.47;1.40;;;;;;;28.06;30.88;100646.68;1721959;82;21090;-62
2022/07/03 09:00:44;;;;;;;2.77;1.27;;;;;;;28.11;30.68;100646.61;1728997;82;21511;-62
2022/07/03 09:03:12;;;;;;;0.95;0.93;;;;;;;28.18;30.68;100644.87;1731450;82;21501;-61
2022/07/03 09:05:39;;;;;;;2.05;1.07;;;;;;;28.25;30.82;100631.57;1734574;82;21164;-62
2022/07/03 09:08:10;;;;;;;1.22;0.70;;;;;;;28.24;30.62;100629.96;1727861;82;21057;-64
2022/07/03 09:10:36;;;;;;;13.28;1.27;;;;;;;28.25;30.65;100625.28;1728008;82;21112;-63
2022/07/03 09:13:04;;;;;;;3.65;1.10;;;;;;;28.23;30.73;100623.41;1727065;81;21062;-62
2022/07/03 09:15:30;;;;;;;5.15;1.10;;;;;;;28.26;30.53;100629.66;1724111;82;20961;-61
2022/07/03 09:18:00;;;;;;;1.87;0.60;;;;;;;28.29;30.37;100629.05;1732670;82;21085;-62
2022/07/03 09:20:41;;;;;;;2.87;1.17;;;;;;;28.27;30.54;100632.64;1728026;82;21093;-61
2022/07/03 09:23:17;;;;;;;1.10;1.00;;;;;;;28.23;30.55;100624.77;1729385;82;21100;-62
2022/07/03 09:25:59;;;;;;;1.70;1.17;;;;;;;28.17;30.63;100633.64;1727673;82;21100;-63
2022/07/03 09:28:51;;;;;;;2.25;0.98;;;;;;;28.19;30.64;100619.64;1728840;82;20963;-61
2022/07/03 09:31:24;;;;;;;1.00;0.98;;;;;;;28.18;30.70;100624.31;1727201;82;21562;-63
2022/07/03 09:34:03;;;;;;;2.17;0.82;;;;;;;28.15;31.00;100618.05;1739394;82;21009;-62
2022/07/03 09:36:48;;;;;;;1.22;0.93;;;;;;;28.13;30.99;100623.83;1728327;82;21569;-61
2022/07/03 09:39:30;;;;;;;2.05;1.15;;;;;;;28.16;31.34;100621.03;1735266;82;21099;-62
2022/07/03 09:42:03;;;;;;;2.55;1.30;;;;;;;28.27;31.61;100614.83;1711136;82;21054;-61
2022/07/03 09:44:47;;;;;;;1.37;1.27;;;;;;;28.41;31.32;100611.58;1733310;81;21013;-62
2022/07/03 09:47:25;;;;;;;2.30;1.10;;;;;;;28.57;31.27;100608.58;1729548;82;21583;-60
2022/07/03 09:49:56;;;;;;;1.30;0.80;;;;;;;28.72;31.03;100609.09;1728240;82;21098;-62
2022/07/03 09:52:41;;;;;;;1.87;1.42;;;;;;;28.78;30.41;100616.66;1729811;82;21104;-60
2022/07/03 09:55:15;;;;;;;1.47;0.78;;;;;;;28.67;30.07;100613.32;1729418;81;21466;-63
2022/07/03 09:57:56;;;;;;;3.55;1.00;;;;;;;28.52;30.42;100617.16;1733156;82;21100;-62
2022/07/03 10:00:30;;;;;;;2.47;1.32;;;;;;;28.49;30.72;100610.87;1728578;82;21528;-62
2022/07/03 10:03:12;;;;;;;6.60;1.05;;;;;;;28.56;30.76;100606.94;1742201;82;21046;-62
2022/07/03 10:05:41;;;;;;;3.15;1.30;;;;;;;28.62;30.28;100604.38;1727888;82;21144;-62
2022/07/03 10:08:15;;;;;;;1.50;0.60;;;;;;;28.58;30.71;100598.69;1725243;82;20982;-62
2022/07/03 10:10:46;;;;;;;3.52;0.93;;;;;;;28.61;30.81;100600.00;1730563;82;21474;-62
2022/07/03 10:13:14;;;;;;;2.35;0.93;;;;;;;28.69;30.77;100600.69;1720739;81;21527;-62
2022/07/03 10:15:42;;;;;;;2.15;0.90;;;;;;;28.76;30.26;100597.52;1720866;83;21008;-63
2022/07/03 10:18:12;;;;;;;3.20;0.98;;;;;;;28.78;29.77;100597.45;1721261;83;21021;-61
2022/07/03 10:20:45;;;;;;;3.17;1.40;;;;;;;28.86;29.63;100595.40;1721881;82;21084;-61
2022/07/03 10:23:12;;;;;;;1.92;1.75;;;;;;;28.91;28.02;100599.42;1733897;81;21089;-61
2022/07/03 10:25:45;;;;;;;4.67;1.98;;;;;;;28.83;27.97;100596.00;1739535;81;21588;-61
2022/07/03 10:28:17;;;;;;;4.72;1.95;;;;;;;28.72;28.55;100600.05;1740742;81;21075;-62
2022/07/03 10:30:46;;;;;;;1.50;1.10;;;;;;;28.63;28.64;100599.13;1750822;81;21652;-61
2022/07/03 10:33:13;;;;;;;1.35;1.05;;;;;;;28.48;28.84;100591.44;1751153;81;21007;-61
2022/07/03 10:35:51;;;;;;;5.20;1.07;;;;;;;28.51;28.98;100605.89;1752958;81;21045;-62
2022/07/03 10:38:34;;;;;;;2.98;1.10;;;;;;;28.54;29.13;100603.96;1749145;81;21066;-62
2022/07/03 10:46:52;;;;;;;3.98;0.98;;;;;;;28.66;31.09;100602.65;1752376;81;21546;-61
2022/07/03 10:49:19;;;;;;;2.70;1.02;;;;;;;28.62;31.25;100601.07;1750760;81;21158;-62
2022/07/03 10:52:01;;;;;;;7.80;1.35;;;;;;;28.59;31.44;100604.97;1748540;81;21014;-61
2022/07/03 10:54:31;;;;;;;4.83;1.12;;;;;;;28.55;31.87;100603.39;1754039;81;21036;-61
2022/07/03 10:57:06;;;;;;;3.80;1.15;;;;;;;28.52;31.90;100606.76;1752670;81;21039;-62
2022/07/03 10:59:43;;;;;;;2.58;1.22;;;;;;;28.51;31.64;100604.52;1751755;81;21503;-61
2022/07/03 11:02:32;;;;;;;4.40;1.05;;;;;;;28.52;31.96;100602.08;1752701;81;20978;-61
2022/07/03 11:05:04;;;;;;;2.08;1.52;;;;;;;28.53;31.91;100605.63;1750163;81;21083;-61
2022/07/03 11:07:45;;;;;;;4.17;1.32;;;;;;;28.52;32.08;100598.53;1751584;81;21055;-61
2022/07/03 11:10:20;;;;;;;0.78;0.78;;;;;;;28.51;32.05;100603.15;1750145;81;21534;-61
2022/07/03 11:13:06;;;;;;;4.00;1.27;;;;;;;28.48;32.79;100603.77;1749487;81;21009;-61
2022/07/03 11:15:50;;;;;;;2.67;0.98;;;;;;;28.45;32.23;100598.89;1745091;81;21646;-61
2022/07/03 11:18:33;;;;;;;3.27;0.88;;;;;;;28.44;31.96;100586.84;1742873;81;21173;-61
2022/07/03 11:21:20;;;;;;;4.10;1.10;;;;;;;28.46;32.53;100587.36;1750013;81;21518;-60
2022/07/03 11:24:22;;;;;;;4.30;0.98;;;;;;;28.45;32.40;100595.34;1749023;81;21073;-61
2022/07/03 11:27:11;;;;;;;2.98;0.95;;;;;;;28.41;32.40;100589.64;1751613;81;22228;-62
2022/07/03 11:29:37;;;;;;;3.25;0.80;;;;;;;28.39;33.20;100586.93;1752126;81;21135;-61
2022/07/03 11:32:49;;;;;;;2.35;1.15;;;;;;;28.35;32.77;100584.01;1738702;81;21060;-61
2022/07/03 11:35:48;;;;;;;1.37;0.70;;;;;;;28.31;32.83;100583.80;1742852;81;21017;-61
2022/07/03 11:38:19;;;;;;;1.50;1.32;;;;;;;28.28;33.00;100580.27;1749475;81;21461;-61
2022/07/03 11:40:48;;;;;;;1.80;1.70;;;;;;;28.22;33.83;100577.91;1752169;81;21596;-61
2022/07/03 11:43:14;;;;;;;2.60;1.70;;;;;;;28.06;34.44;100578.19;1751473;81;21069;-62
2022/07/03 11:45:41;;;;;;;2.47;2.00;;;;;;;27.94;35.75;100578.66;1747431;81;21037;-61
2022/07/03 11:48:15;;;;;;;3.67;2.70;;;;;;;27.83;37.84;100574.43;1753329;81;21053;-62
2022/07/03 11:50:44;;;;;;;5.10;2.40;;;;;;;27.65;37.49;100574.73;1753144;81;21129;-61
2022/07/03 11:53:27;;;;;;;3.10;2.27;;;;;;;27.47;38.15;100577.72;1750931;81;21524;-62
2022/07/03 11:56:01;;;;;;;2.58;1.62;;;;;;;27.34;38.10;100577.89;1748752;81;21008;-62
2022/07/03 11:58:52;;;;;;;2.02;1.87;;;;;;;27.17;39.24;100573.45;1752431;81;21104;-62
2022/07/03 12:01:34;;;;;;;3.58;1.27;;;;;;;26.99;39.44;100572.30;1758026;80;21053;-62
2022/07/03 12:04:23;;;;;;;12.80;1.95;;;;;;;26.86;40.09;100577.95;1752377;81;21539;-61